Time;durP1;ratioP1;P1;durP2;ratioP2;P2;SDS_P1;SDS_P2;PMS_P1;PMS_P2;Temp;Humidity;BMP_temperature;BMP_pressure;BME280_temperature;BME280_humidity;BME280_pressure;Samples;Min_cycle;Max_cycle;Signal;HPM_P1;HPM_P2
2023/11/29 00:00:20;;;;;;;42.95;38.95;;;8.50;99.90;;;;;;4987347;28;20039;-75
2023/11/29 00:02:46;;;;;;;42.67;38.83;;;8.50;99.90;;;;;;4992487;28;20419;-75
2023/11/29 00:05:12;;;;;;;43.28;39.03;;;8.50;99.90;;;;;;4990178;28;20042;-75
2023/11/29 00:07:43;;;;;;;42.50;38.53;;;8.50;99.90;;;;;;4991969;28;20042;-74
2023/11/29 00:10:09;;;;;;;43.15;39.38;;;8.50;99.90;;;;;;4991514;28;20399;-75
2023/11/29 00:12:36;;;;;;;40.08;36.28;;;8.50;99.90;;;;;;4993227;28;20045;-74
2023/11/29 00:15:04;;;;;;;39.80;36.15;;;8.50;99.90;;;;;;4986137;28;20035;-75
2023/11/29 00:17:30;;;;;;;40.53;36.80;;;8.60;99.90;;;;;;4986870;28;20039;-74
2023/11/29 00:19:56;;;;;;;39.90;35.60;;;8.60;99.90;;;;;;4986068;28;20361;-75
2023/11/29 00:22:22;;;;;;;38.97;35.20;;;8.60;99.90;;;;;;4993322;28;20062;-75
2023/11/29 00:24:48;;;;;;;38.28;34.38;;;8.70;99.90;;;;;;4992194;28;20082;-75
2023/11/29 00:27:15;;;;;;;38.00;34.35;;;8.60;99.90;;;;;;4988213;28;20038;-75
2023/11/29 00:29:41;;;;;;;38.92;35.20;;;8.60;99.90;;;;;;4992211;28;20053;-74
2023/11/29 00:32:07;;;;;;;41.55;37.58;;;8.60;99.90;;;;;;4988418;28;20031;-74
2023/11/29 00:34:33;;;;;;;39.13;35.33;;;8.60;99.90;;;;;;4973631;28;20023;-75
2023/11/29 00:36:59;;;;;;;40.20;36.17;;;8.60;99.90;;;;;;4989085;28;20034;-74
2023/11/29 00:39:25;;;;;;;39.40;35.85;;;8.60;99.90;;;;;;4992886;28;20391;-75
2023/11/29 00:41:51;;;;;;;38.72;35.03;;;8.60;99.90;;;;;;4992855;28;20391;-75
2023/11/29 00:44:18;;;;;;;39.03;35.17;;;8.60;99.90;;;;;;4993007;28;20091;-75
2023/11/29 00:46:44;;;;;;;37.65;33.80;;;8.50;99.90;;;;;;4985455;28;20377;-75
2023/11/29 00:49:10;;;;;;;39.97;36.17;;;8.50;99.90;;;;;;4985377;28;20031;-75
2023/11/29 00:51:36;;;;;;;37.97;34.05;;;8.50;99.90;;;;;;4977166;28;20034;-74
2023/11/29 00:54:02;;;;;;;38.40;34.67;;;8.50;99.90;;;;;;4986118;28;20031;-74
2023/11/29 00:56:28;;;;;;;40.42;35.83;;;8.50;99.90;;;;;;4987897;28;20057;-74
2023/11/29 00:58:54;;;;;;;41.67;37.72;;;8.50;99.90;;;;;;4974510;28;20046;-70
2023/11/29 01:01:20;;;;;;;39.80;35.97;;;8.50;99.90;;;;;;4989748;28;20368;-70
2023/11/29 01:03:46;;;;;;;38.47;34.78;;;8.50;99.90;;;;;;4980780;28;20050;-70
2023/11/29 01:06:12;;;;;;;38.50;35.15;;;8.50;99.90;;;;;;4983006;28;20082;-70
2023/11/29 01:08:38;;;;;;;40.45;36.67;;;8.50;99.90;;;;;;4991389;28;20030;-70
2023/11/29 01:11:05;;;;;;;38.78;35.20;;;8.50;99.90;;;;;;4992652;28;20049;-70
2023/11/29 01:13:31;;;;;;;41.97;37.63;;;8.50;99.90;;;;;;4992811;28;20038;-69
2023/11/29 01:15:57;;;;;;;40.38;36.65;;;8.50;99.90;;;;;;4991353;28;20074;-70
2023/11/29 01:18:23;;;;;;;37.90;34.35;;;8.50;99.90;;;;;;4981188;28;20038;-70
2023/11/29 01:20:49;;;;;;;38.58;35.13;;;8.50;99.90;;;;;;4991023;28;20041;-70
2023/11/29 01:23:15;;;;;;;40.67;37.00;;;8.50;99.90;;;;;;4984140;28;20049;-70
2023/11/29 01:25:42;;;;;;;39.88;36.05;;;8.40;99.90;;;;;;4985026;28;20054;-70
2023/11/29 01:28:08;;;;;;;37.83;34.20;;;8.50;99.90;;;;;;4973988;28;20050;-69
2023/11/29 01:30:34;;;;;;;38.20;34.58;;;8.50;99.90;;;;;;4987018;28;20475;-70
2023/11/29 01:33:00;;;;;;;37.40;34.15;;;8.40;99.90;;;;;;4983674;28;20027;-69
2023/11/29 01:35:26;;;;;;;37.60;34.38;;;8.40;99.90;;;;;;4978986;28;20030;-69
2023/11/29 01:37:52;;;;;;;38.25;34.58;;;8.50;99.90;;;;;;4990692;28;20023;-70
2023/11/29 01:40:18;;;;;;;39.40;35.40;;;8.40;99.90;;;;;;4984040;28;20039;-70
2023/11/29 01:42:44;;;;;;;40.10;36.38;;;8.40;99.90;;;;;;4994436;28;20399;-70
2023/11/29 01:45:10;;;;;;;37.65;34.10;;;8.40;99.90;;;;;;4982846;28;20042;-70
2023/11/29 01:47:37;;;;;;;36.17;33.00;;;8.40;99.90;;;;;;4979383;28;20034;-70
2023/11/29 01:50:04;;;;;;;37.58;33.97;;;8.40;99.90;;;;;;4989622;28;20483;-70
2023/11/29 01:52:34;;;;;;;37.65;34.05;;;8.30;99.90;;;;;;4986111;28;20031;-70
2023/11/29 01:55:00;;;;;;;37.75;34.53;;;8.20;99.90;;;;;;4983041;28;20383;-70
2023/11/29 01:57:26;;;;;;;40.85;37.13;;;8.20;99.90;;;;;;4990258;28;20038;-70
2023/11/29 01:59:53;;;;;;;40.17;36.33;;;8.20;99.90;;;;;;4988410;28;20034;-70
2023/11/29 02:15:49;;;;;;;53.78;48.85;;;8.10;99.90;;;;;;4989050;28;20041;-70
2023/11/29 02:18:15;;;;;;;55.05;50.45;;;8.10;99.90;;;;;;4990135;28;20038;-70
2023/11/29 02:20:41;;;;;;;51.70;47.58;;;8.10;99.90;;;;;;4984396;28;20034;-70
2023/11/29 02:23:17;;;;;;;50.20;46.00;;;8.10;99.90;;;;;;5001951;28;20081;-70
2023/11/29 02:25:43;;;;;;;48.67;43.92;;;8.10;99.90;;;;;;4990979;28;20053;-70
2023/11/29 02:28:09;;;;;;;50.13;45.85;;;8.10;99.90;;;;;;4990448;28;20034;-70
2023/11/29 02:30:35;;;;;;;48.72;44.50;;;8.00;99.90;;;;;;4991287;28;20087;-70
2023/11/29 02:33:01;;;;;;;46.75;42.72;;;8.00;99.90;;;;;;4990493;28;20050;-75
2023/11/29 02:35:27;;;;;;;49.38;45.08;;;8.00;99.90;;;;;;4989860;28;20057;-75
2023/11/29 02:37:54;;;;;;;49.65;45.50;;;8.00;99.90;;;;;;4992366;28;20030;-75
2023/11/29 02:40:20;;;;;;;45.78;41.22;;;8.10;99.90;;;;;;4992755;28;20053;-74
2023/11/29 02:42:46;;;;;;;46.90;42.92;;;8.00;99.90;;;;;;4995950;28;20035;-75
2023/11/29 02:45:12;;;;;;;46.28;42.58;;;8.00;99.90;;;;;;4994175;28;20029;-74
2023/11/29 02:47:38;;;;;;;44.22;40.40;;;8.00;99.90;;;;;;5004470;28;20041;-74
2023/11/29 02:50:05;;;;;;;45.00;40.70;;;7.90;99.90;;;;;;4993568;28;20033;-75
2023/11/29 02:52:31;;;;;;;46.53;42.53;;;7.90;99.90;;;;;;4993072;28;20065;-76
2023/11/29 02:54:57;;;;;;;49.05;44.72;;;7.90;99.90;;;;;;4992605;28;20046;-74
2023/11/29 02:57:23;;;;;;;45.63;41.67;;;7.80;99.90;;;;;;4993394;28;20399;-74
2023/11/29 02:59:50;;;;;;;44.50;40.70;;;7.80;99.90;;;;;;5002045;28;20026;-75
2023/11/29 03:02:16;;;;;;;40.90;37.53;;;7.80;99.90;;;;;;4992843;28;20510;-75
2023/11/29 03:04:42;;;;;;;40.85;37.33;;;7.70;99.90;;;;;;4992952;28;20053;-73
2023/11/29 03:07:08;;;;;;;42.30;38.22;;;7.80;99.90;;;;;;4993707;28;20383;-75
2023/11/29 03:09:34;;;;;;;39.83;36.13;;;7.70;99.90;;;;;;5003863;28;20038;-75
2023/11/29 03:12:00;;;;;;;46.33;42.13;;;7.80;99.90;;;;;;4994359;28;20475;-74
2023/11/29 03:14:26;;;;;;;45.65;41.95;;;7.80;99.90;;;;;;4998948;28;20037;-74
2023/11/29 03:16:53;;;;;;;56.17;51.78;;;7.80;99.90;;;;;;4993362;28;20054;-74
2023/11/29 03:19:19;;;;;;;59.65;55.13;;;7.70;99.90;;;;;;4992445;28;20042;-74
2023/11/29 03:21:45;;;;;;;56.80;52.30;;;7.70;99.90;;;;;;4993449;28;20506;-74
2023/11/29 03:24:11;;;;;;;47.22;43.13;;;7.70;99.90;;;;;;4988052;28;20046;-75
2023/11/29 03:26:43;;;;;;;47.03;43.20;;;7.70;99.90;;;;;;4993614;28;20506;-75
2023/11/29 03:29:10;;;;;;;40.35;36.15;;;7.70;99.90;;;;;;4992384;28;20046;-75
2023/11/29 03:31:36;;;;;;;39.83;36.03;;;7.70;99.90;;;;;;4987997;28;20037;-74
2023/11/29 03:34:02;;;;;;;41.20;37.45;;;7.70;99.90;;;;;;4989961;28;20475;-73
2023/11/29 03:36:28;;;;;;;41.22;37.63;;;7.70;99.90;;;;;;4988180;28;20043;-70
2023/11/29 03:38:54;;;;;;;42.97;38.97;;;7.70;99.90;;;;;;5000148;28;20030;-70
2023/11/29 03:41:20;;;;;;;42.67;39.00;;;7.80;99.90;;;;;;4987419;28;20035;-71
2023/11/29 03:43:46;;;;;;;39.22;35.70;;;7.80;99.90;;;;;;4985008;28;20491;-70
2023/11/29 03:46:12;;;;;;;38.97;35.28;;;7.80;99.90;;;;;;4984191;28;20026;-70
2023/11/29 03:48:38;;;;;;;38.75;35.13;;;7.70;99.90;;;;;;4992788;28;20031;-70
2023/11/29 03:51:05;;;;;;;40.03;34.67;;;7.70;99.90;;;;;;4985363;28;20022;-70
2023/11/29 03:53:31;;;;;;;39.65;35.28;;;7.70;99.90;;;;;;4983930;28;20023;-70
2023/11/29 03:55:57;;;;;;;40.22;36.42;;;7.70;99.90;;;;;;4988298;28;20045;-70
2023/11/29 03:58:23;;;;;;;41.03;37.30;;;7.70;99.90;;;;;;4985616;28;20026;-70
2023/11/29 04:00:49;;;;;;;41.05;37.47;;;7.80;99.90;;;;;;4984571;28;20034;-70
2023/11/29 04:03:15;;;;;;;40.97;37.22;;;7.80;99.90;;;;;;4984652;28;20406;-70
2023/11/29 04:05:41;;;;;;;41.90;38.05;;;7.70;99.90;;;;;;4990903;28;20038;-70
2023/11/29 04:08:07;;;;;;;42.60;38.42;;;7.70;99.90;;;;;;4987282;28;20035;-70
2023/11/29 04:10:34;;;;;;;43.95;40.03;;;7.70;99.90;;;;;;4987232;28;20387;-70
2023/11/29 04:13:01;;;;;;;46.72;42.85;;;7.70;99.90;;;;;;4979382;28;20033;-70
2023/11/29 04:15:27;;;;;;;40.00;36.42;;;7.70;99.90;;;;;;4983957;28;20037;-70
2023/11/29 04:17:53;;;;;;;39.08;35.33;;;7.70;99.90;;;;;;4991569;28;20038;-70
2023/11/29 04:20:19;;;;;;;38.20;34.85;;;7.60;99.90;;;;;;4991247;28;20022;-70
2023/11/29 04:22:48;;;;;;;40.40;36.60;;;7.60;99.90;;;;;;4992157;28;20041;-70
2023/11/29 04:25:14;;;;;;;40.85;37.15;;;7.60;99.90;;;;;;4988359;28;20058;-70
2023/11/29 04:27:41;;;;;;;38.97;35.58;;;7.60;99.90;;;;;;4992099;28;20499;-70
2023/11/29 04:30:07;;;;;;;44.38;40.30;;;7.60;99.90;;;;;;4978733;28;20362;-69
2023/11/29 04:32:34;;;;;;;43.53;39.13;;;7.60;99.90;;;;;;4982497;28;20022;-70
2023/11/29 04:35:00;;;;;;;41.72;38.05;;;7.60;99.90;;;;;;5000251;28;20037;-70
2023/11/29 04:37:26;;;;;;;53.70;49.30;;;7.50;99.90;;;;;;4988535;28;20038;-75
2023/11/29 04:39:52;;;;;;;51.75;47.45;;;7.50;99.90;;;;;;4987157;28;20042;-75
2023/11/29 04:42:24;;;;;;;56.03;51.45;;;7.40;99.90;;;;;;4992260;28;20069;-76
2023/11/29 04:44:50;;;;;;;52.60;48.43;;;7.40;99.90;;;;;;4989741;28;20042;-75
2023/11/29 04:47:16;;;;;;;41.13;37.40;;;7.40;99.90;;;;;;4991625;28;20042;-74
2023/11/29 04:49:42;;;;;;;39.30;35.87;;;7.40;99.90;;;;;;4992601;28;20114;-74
2023/11/29 04:52:08;;;;;;;39.03;35.50;;;7.40;99.90;;;;;;4990241;28;20053;-75
2023/11/29 04:54:34;;;;;;;41.58;37.60;;;7.40;99.90;;;;;;5003131;28;20045;-75
2023/11/29 04:57:00;;;;;;;40.40;36.70;;;7.30;99.90;;;;;;4998101;28;20034;-74
2023/11/29 04:59:26;;;;;;;42.58;38.85;;;7.30;99.90;;;;;;4991195;28;20051;-74
2023/11/29 05:01:52;;;;;;;39.03;35.55;;;7.30;99.90;;;;;;4989609;28;20045;-75
2023/11/29 05:04:18;;;;;;;38.30;34.85;;;7.20;99.90;;;;;;4991666;28;20407;-74
2023/11/29 05:06:44;;;;;;;38.05;34.53;;;7.20;99.90;;;;;;4992545;28;20034;-74
2023/11/29 05:09:14;;;;;;;37.58;34.17;;;7.20;99.90;;;;;;4992206;28;20494;-75
2023/11/29 05:11:41;;;;;;;40.55;36.67;;;7.20;99.90;;;;;;4991736;28;20415;-74
2023/11/29 05:14:07;;;;;;;41.78;37.92;;;7.10;99.90;;;;;;5004543;28;20053;-75
2023/11/29 05:16:33;;;;;;;37.85;34.45;;;7.10;99.90;;;;;;5006093;28;20046;-75
2023/11/29 05:19:00;;;;;;;35.75;32.38;;;7.10;99.90;;;;;;4992751;28;20494;-75
2023/11/29 05:21:27;;;;;;;35.42;31.92;;;7.10;99.90;;;;;;5002340;28;20041;-75
2023/11/29 05:23:53;;;;;;;34.53;31.38;;;7.20;99.90;;;;;;4993015;28;20050;-74
2023/11/29 05:26:19;;;;;;;35.43;32.03;;;7.20;99.90;;;;;;4992070;28;20054;-75
2023/11/29 05:28:45;;;;;;;36.23;33.23;;;7.20;99.90;;;;;;4999074;28;20034;-74
2023/11/29 05:31:13;;;;;;;36.80;33.42;;;7.20;99.90;;;;;;4991204;28;20430;-75
2023/11/29 05:33:39;;;;;;;36.67;33.58;;;7.20;99.90;;;;;;4994595;28;20047;-77
2023/11/29 05:36:05;;;;;;;38.27;34.80;;;7.10;99.90;;;;;;4998052;28;20039;-75
2023/11/29 05:38:32;;;;;;;34.95;31.88;;;7.10;99.90;;;;;;4996343;28;20057;-75
2023/11/29 05:40:58;;;;;;;35.43;32.37;;;7.20;99.90;;;;;;4996001;28;20499;-70
2023/11/29 05:43:24;;;;;;;35.63;32.13;;;7.20;99.90;;;;;;4996176;28;20030;-73
2023/11/29 05:45:50;;;;;;;35.92;32.42;;;7.20;99.90;;;;;;4994926;28;20046;-70
2023/11/29 05:48:16;;;;;;;37.15;33.95;;;7.20;99.90;;;;;;4983064;28;20357;-73
2023/11/29 05:50:42;;;;;;;38.20;34.77;;;7.20;99.90;;;;;;4994371;28;20030;-69
2023/11/29 05:53:08;;;;;;;43.97;40.43;;;7.20;99.90;;;;;;4996040;28;20023;-70
2023/11/29 05:55:34;;;;;;;43.50;39.87;;;7.20;99.90;;;;;;4994765;28;20034;-70
2023/11/29 05:58:03;;;;;;;40.15;37.05;;;7.20;99.90;;;;;;5012229;28;20044;-70
2023/11/29 06:00:29;;;;;;;41.22;37.92;;;7.20;99.90;;;;;;5009744;28;20038;-70
2023/11/29 06:02:56;;;;;;;44.58;41.08;;;7.20;99.90;;;;;;4994353;28;20375;-70
2023/11/29 06:05:22;;;;;;;41.92;38.33;;;7.20;99.90;;;;;;4979385;28;20395;-70
2023/11/29 06:07:48;;;;;;;39.70;36.30;;;7.30;99.90;;;;;;4999301;28;20053;-70
2023/11/29 06:10:14;;;;;;;38.58;35.45;;;7.30;99.90;;;;;;4996140;28;20383;-70
2023/11/29 06:12:40;;;;;;;34.35;31.23;;;7.30;99.90;;;;;;5008563;28;20045;-70
2023/11/29 06:15:08;;;;;;;33.25;30.38;;;7.30;99.90;;;;;;4995420;28;20037;-70
2023/11/29 06:17:35;;;;;;;34.75;31.67;;;7.30;99.90;;;;;;4994738;28;20042;-70
2023/11/29 06:20:04;;;;;;;34.25;31.35;;;7.30;99.90;;;;;;4994680;28;20031;-70
2023/11/29 06:22:32;;;;;;;30.92;28.20;;;7.30;99.90;;;;;;4994959;28;20467;-70
2023/11/29 06:24:59;;;;;;;35.25;32.30;;;7.30;99.90;;;;;;4995312;28;20050;-70
2023/11/29 06:27:28;;;;;;;32.30;29.50;;;7.20;99.90;;;;;;4995122;28;20034;-69
2023/11/29 06:29:54;;;;;;;38.07;34.57;;;7.10;99.90;;;;;;4995495;28;20471;-70
2023/11/29 06:32:22;;;;;;;32.55;29.35;;;7.10;99.90;;;;;;4994683;28;20495;-70
2023/11/29 06:34:50;;;;;;;35.63;32.05;;;7.10;99.90;;;;;;4994439;28;20038;-69
2023/11/29 06:37:16;;;;;;;34.03;30.50;;;7.10;99.90;;;;;;4994000;28;20376;-71
2023/11/29 06:39:42;;;;;;;31.17;28.38;;;7.10;99.90;;;;;;4994317;28;20031;-70
2023/11/29 06:42:08;;;;;;;41.90;38.27;;;7.10;99.90;;;;;;4994850;28;20037;-70
2023/11/29 06:44:34;;;;;;;39.53;35.65;;;7.10;99.90;;;;;;4994523;28;20042;-75
2023/11/29 06:47:01;;;;;;;38.23;34.60;;;7.00;99.90;;;;;;4993890;28;20030;-75
2023/11/29 06:49:27;;;;;;;39.00;35.40;;;7.00;99.90;;;;;;4995442;28;20050;-75
2023/11/29 06:51:53;;;;;;;36.05;31.33;;;7.00;99.90;;;;;;4994842;28;20061;-75
2023/11/29 06:54:19;;;;;;;43.30;35.07;;;7.00;99.90;;;;;;4995061;28;20041;-75
2023/11/29 06:56:46;;;;;;;32.73;29.57;;;7.00;99.90;;;;;;4995129;28;20368;-74
2023/11/29 06:59:12;;;;;;;34.90;32.00;;;6.90;99.90;;;;;;4995826;28;20038;-74
2023/11/29 07:01:39;;;;;;;41.30;37.58;;;6.90;99.90;;;;;;4994145;28;20041;-75
2023/11/29 07:04:05;;;;;;;35.63;32.63;;;6.90;99.90;;;;;;4994897;28;20073;-75
2023/11/29 07:06:31;;;;;;;37.72;33.90;;;6.90;99.90;;;;;;4993398;28;20018;-75
2023/11/29 07:08:57;;;;;;;40.30;36.58;;;6.90;99.90;;;;;;4994494;28;20069;-75
2023/11/29 07:11:24;;;;;;;1009.33;95.93;;;6.90;99.90;;;;;;4994871;28;20022;-75
2023/11/29 07:13:50;;;;;;;111.50;34.73;;;6.90;99.90;;;;;;4994765;28;20038;-75
2023/11/29 07:16:17;;;;;;;36.10;32.27;;;6.90;99.90;;;;;;4993716;28;20035;-74
2023/11/29 07:18:43;;;;;;;35.40;32.35;;;6.80;99.90;;;;;;4994271;28;20499;-76
2023/11/29 07:21:09;;;;;;;36.20;32.50;;;6.70;99.90;;;;;;4994773;28;20030;-75
2023/11/29 07:23:35;;;;;;;33.67;30.57;;;6.80;99.90;;;;;;4993309;28;20031;-72
2023/11/29 07:26:01;;;;;;;35.00;31.60;;;6.80;99.90;;;;;;4992774;28;20050;-75
2023/11/29 07:28:28;;;;;;;52.30;48.07;;;6.80;99.90;;;;;;4994787;28;20463;-76
2023/11/29 07:30:54;;;;;;;53.33;49.47;;;6.80;99.90;;;;;;4994677;28;20045;-76
2023/11/29 07:33:20;;;;;;;52.83;48.83;;;6.80;99.90;;;;;;4994346;28;20030;-76
2023/11/29 07:35:46;;;;;;;53.73;49.27;;;6.80;99.90;;;;;;4993264;28;20387;-76
2023/11/29 07:38:12;;;;;;;40.70;36.70;;;6.80;99.90;;;;;;4975063;28;20027;-76
2023/11/29 07:40:38;;;;;;;32.83;30.07;;;6.70;99.90;;;;;;4981638;28;20480;-76
2023/11/29 07:43:04;;;;;;;31.80;29.17;;;6.60;99.90;;;;;;4994455;28;20034;-75
2023/11/29 07:45:30;;;;;;;39.80;36.40;;;6.60;99.90;;;;;;4993925;28;20046;-69
2023/11/29 07:47:56;;;;;;;41.10;38.00;;;6.60;99.90;;;;;;4991315;28;20030;-70
2023/11/29 07:50:24;;;;;;;38.93;35.87;;;6.60;99.90;;;;;;4992465;28;20034;-70
2023/11/29 07:52:51;;;;;;;37.03;34.03;;;6.60;99.90;;;;;;4992946;28;20046;-69
2023/11/29 07:55:17;;;;;;;37.57;34.63;;;6.70;99.90;;;;;;4994301;28;20038;-69
2023/11/29 07:57:44;;;;;;;38.70;35.53;;;6.70;99.90;;;;;;4992843;28;20045;-70
2023/11/29 08:00:12;;;;;;;37.77;34.80;;;6.70;99.90;;;;;;4993258;28;20058;-70
2023/11/29 08:02:39;;;;;;;31.47;28.67;;;6.60;99.90;;;;;;4993935;28;20042;-70
2023/11/29 08:05:06;;;;;;;36.67;33.50;;;6.60;99.90;;;;;;4993797;28;20042;-71
2023/11/29 08:07:32;;;;;;;34.17;31.07;;;6.50;99.90;;;;;;4987939;28;20480;-70
2023/11/29 08:10:01;;;;;;;30.60;27.77;;;6.50;99.90;;;;;;4996356;28;20037;-70
2023/11/29 08:12:31;;;;;;;31.67;28.67;;;6.60;99.90;;;;;;4978344;28;20333;-70
2023/11/29 08:14:57;;;;;;;42.07;38.50;;;6.60;99.90;;;;;;4974139;28;20075;-70
2023/11/29 08:17:23;;;;;;;46.77;42.57;;;6.60;99.90;;;;;;4993279;28;20031;-69
2023/11/29 08:19:56;;;;;;;46.03;41.23;;;6.60;99.90;;;;;;5109621;27;20445;-72
2023/11/29 08:22:22;;;;;;;44.17;39.50;;;6.60;99.90;;;;;;5089693;28;20032;-70
2023/11/29 08:24:48;;;;;;;39.00;34.90;;;6.60;99.90;;;;;;5104538;28;20035;-70
2023/11/29 08:27:15;;;;;;;70.73;63.73;;;6.60;99.90;;;;;;5100848;28;20020;-70
2023/11/29 08:29:42;;;;;;;65.37;59.50;;;6.50;99.90;;;;;;5107759;28;20024;-71
2023/11/29 08:32:08;;;;;;;47.87;44.03;;;6.50;99.90;;;;;;5048008;28;20103;-70
2023/11/29 08:34:34;;;;;;;49.73;45.77;;;6.60;99.90;;;;;;5049315;28;20465;-70
2023/11/29 08:37:00;;;;;;;53.13;49.23;;;6.50;99.90;;;;;;5063661;28;20040;-70
2023/11/29 08:39:26;;;;;;;50.43;46.80;;;6.50;99.90;;;;;;5047061;28;20143;-69
2023/11/29 08:41:52;;;;;;;53.25;48.95;;;6.60;99.90;;;;;;5062986;28;20060;-70
2023/11/29 08:44:18;;;;;;;48.83;45.22;;;6.80;99.90;;;;;;5048811;28;20041;-70
2023/11/29 08:46:45;;;;;;;49.83;45.77;;;6.90;99.90;;;;;;5063359;28;20506;-69
2023/11/29 08:49:11;;;;;;;52.67;48.63;;;6.90;99.90;;;;;;5061762;28;20049;-70
2023/11/29 08:51:37;;;;;;;48.07;44.40;;;6.70;99.90;;;;;;5056582;28;20037;-70
2023/11/29 08:54:04;;;;;;;40.38;37.30;;;6.60;99.90;;;;;;5049116;28;20033;-70
2023/11/29 08:56:30;;;;;;;32.80;29.97;;;6.40;99.90;;;;;;5047534;28;20040;-70
2023/11/29 08:58:56;;;;;;;40.45;37.58;;;6.30;99.90;;;;;;5044694;28;20049;-70
2023/11/29 09:01:22;;;;;;;41.53;38.67;;;6.40;99.90;;;;;;5036556;28;20049;-70
2023/11/29 09:03:49;;;;;;;29.48;27.08;;;6.50;99.90;;;;;;5027420;28;20036;-70
2023/11/29 09:06:16;;;;;;;31.63;29.02;;;6.60;99.90;;;;;;5034957;28;20045;-70
2023/11/29 09:08:43;;;;;;;32.85;29.98;;;6.60;99.90;;;;;;5028819;28;20049;-70
2023/11/29 09:11:09;;;;;;;35.35;32.28;;;6.50;99.90;;;;;;5026496;28;20405;-71
2023/11/29 09:13:35;;;;;;;57.30;52.97;;;6.60;99.90;;;;;;5028744;28;20062;-71
2023/11/29 09:16:02;;;;;;;52.23;48.43;;;6.60;99.90;;;;;;5027617;28;20037;-70
2023/11/29 09:18:28;;;;;;;55.47;51.05;;;6.60;99.90;;;;;;5028342;28;20076;-70
2023/11/29 09:20:55;;;;;;;70.85;65.78;;;6.70;99.90;;;;;;5027965;28;20040;-70
2023/11/29 09:23:21;;;;;;;69.15;64.32;;;6.70;99.90;;;;;;5025724;28;20497;-70
2023/11/29 09:25:48;;;;;;;60.70;56.08;;;6.80;99.90;;;;;;5019108;28;20029;-70
2023/11/29 09:28:15;;;;;;;72.57;67.93;;;6.90;99.90;;;;;;5028113;28;20053;-70
2023/11/29 09:30:45;;;;;;;62.10;57.97;;;6.90;99.90;;;;;;5017606;28;20038;-70
2023/11/29 09:33:11;;;;;;;91.68;86.10;;;6.90;99.90;;;;;;5015206;28;20044;-70
2023/11/29 09:35:37;;;;;;;114.43;107.53;;;6.90;99.90;;;;;;5014936;28;20021;-70
2023/11/29 09:38:04;;;;;;;102.93;96.88;;;6.90;99.90;;;;;;5014806;28;20050;-71
2023/11/29 09:40:30;;;;;;;53.83;50.25;;;6.90;99.90;;;;;;5014034;28;20707;-70
2023/11/29 09:42:56;;;;;;;92.43;86.68;;;7.10;99.90;;;;;;5014736;28;20042;-70
2023/11/29 09:45:24;;;;;;;97.78;91.57;;;7.20;99.90;;;;;;5013830;28;20037;-70
2023/11/29 09:47:50;;;;;;;100.07;94.18;;;7.20;99.90;;;;;;5014808;28;20022;-70
2023/11/29 09:50:19;;;;;;;72.85;68.40;;;7.40;99.90;;;;;;5024540;28;20042;-70
2023/11/29 09:52:46;;;;;;;56.30;52.08;;;7.50;99.90;;;;;;5035890;28;20029;-70
2023/11/29 09:55:12;;;;;;;54.92;51.20;;;7.40;99.90;;;;;;5034601;28;20041;-70
2023/11/29 09:57:39;;;;;;;48.38;44.95;;;7.40;99.90;;;;;;5014597;28;20044;-70
2023/11/29 10:00:09;;;;;;;47.85;44.30;;;7.50;99.90;;;;;;5013965;28;20049;-70
2023/11/29 10:02:38;;;;;;;44.83;41.42;;;7.60;99.90;;;;;;5034125;28;20041;-70
2023/11/29 10:05:04;;;;;;;43.38;40.47;;;7.50;99.90;;;;;;5029037;28;20045;-70
2023/11/29 10:07:31;;;;;;;47.42;44.33;;;7.60;99.90;;;;;;5035103;28;20057;-71
2023/11/29 10:10:01;;;;;;;42.08;38.85;;;7.70;99.90;;;;;;5055494;28;20048;-70
2023/11/29 10:12:27;;;;;;;36.38;33.72;;;7.80;99.90;;;;;;5053243;28;20029;-70
2023/11/29 10:14:54;;;;;;;33.50;30.63;;;7.80;99.90;;;;;;5047928;28;20029;-70
2023/11/29 10:17:20;;;;;;;36.10;33.13;;;7.70;99.90;;;;;;5013192;28;20041;-70
2023/11/29 10:19:47;;;;;;;37.10;34.35;;;7.80;99.90;;;;;;5028938;28;20050;-70
2023/11/29 10:22:16;;;;;;;43.42;40.28;;;8.00;99.90;;;;;;5012134;28;20042;-70
2023/11/29 10:24:43;;;;;;;40.05;36.92;;;8.20;99.90;;;;;;5013860;28;20030;-70
2023/11/29 10:27:10;;;;;;;43.17;40.17;;;8.20;99.90;;;;;;5011763;28;20077;-70
2023/11/29 10:29:36;;;;;;;35.95;33.45;;;8.10;99.90;;;;;;5027021;28;20042;-70
2023/11/29 10:32:04;;;;;;;31.73;29.30;;;8.10;99.90;;;;;;4995371;28;20045;-69
2023/11/29 10:34:32;;;;;;;42.95;39.63;;;8.20;99.90;;;;;;5015014;28;20053;-70
2023/11/29 10:37:00;;;;;;;40.60;37.78;;;8.30;99.90;;;;;;5010235;28;20036;-70
2023/11/29 10:39:34;;;;;;;30.98;28.30;;;8.50;99.90;;;;;;5003301;28;20487;-69
2023/11/29 10:42:01;;;;;;;37.42;34.33;;;8.50;99.90;;;;;;5030287;28;20026;-70
2023/11/29 10:44:38;;;;;;;54.95;51.20;;;8.70;99.90;;;;;;5029973;28;20030;-70
2023/11/29 10:47:12;;;;;;;36.95;34.22;;;8.80;99.90;;;;;;5014244;28;20029;-70
2023/11/29 10:49:45;;;;;;;49.05;45.88;;;8.70;99.90;;;;;;5011403;28;20042;-70
2023/11/29 10:52:11;;;;;;;42.17;39.03;;;8.70;99.90;;;;;;5011834;28;20446;-70
2023/11/29 10:54:37;;;;;;;40.70;37.85;;;8.80;99.90;;;;;;5012676;28;20033;-70
2023/11/29 10:57:03;;;;;;;51.95;48.28;;;8.80;99.90;;;;;;5011482;28;20063;-70
2023/11/29 10:59:31;;;;;;;55.55;51.92;;;8.90;99.90;;;;;;5011832;28;20445;-70
2023/11/29 11:01:58;;;;;;;47.60;44.63;;;9.00;99.90;;;;;;4994441;28;20034;-70
2023/11/29 11:04:34;;;;;;;45.78;42.58;;;9.10;99.90;;;;;;5028160;28;20038;-70
2023/11/29 11:07:02;;;;;;;43.25;40.33;;;9.20;99.90;;;;;;5011846;28;20026;-70
2023/11/29 11:09:39;;;;;;;51.42;48.10;;;9.10;99.90;;;;;;5013321;28;20227;-70
2023/11/29 11:12:06;;;;;;;47.08;43.67;;;9.10;99.90;;;;;;5012413;28;20487;-70
2023/11/29 11:14:46;;;;;;;29.15;26.85;;;9.20;99.90;;;;;;5013125;28;20033;-68
2023/11/29 11:17:18;;;;;;;35.17;32.85;;;9.10;99.90;;;;;;5027265;28;20041;-68
2023/11/29 11:19:45;;;;;;;44.55;41.60;;;8.80;99.90;;;;;;5012567;28;20050;-68
2023/11/29 11:22:26;;;;;;;39.40;36.60;;;8.80;99.90;;;;;;5013133;28;20052;-68
2023/11/29 11:25:04;;;;;;;;;;;8.90;99.90;;;;;;5013582;28;20029;-68
2023/11/29 11:27:34;;;;;;;30.58;27.67;;;9.00;99.90;;;;;;5012699;28;19909;-68
2023/11/29 11:30:11;;;;;;;32.03;29.50;;;8.80;99.90;;;;;;5011035;28;20045;-68
2023/11/29 11:32:39;;;;;;;38.50;35.50;;;8.60;99.90;;;;;;5008719;28;20065;-68
2023/11/29 11:35:24;;;;;;;32.97;30.33;;;8.70;99.90;;;;;;5013278;28;20049;-69
2023/11/29 11:38:06;;;;;;;37.47;34.80;;;8.90;99.90;;;;;;5012480;28;20041;-68
2023/11/29 11:40:33;;;;;;;31.40;28.88;;;8.90;99.90;;;;;;5011951;28;20037;-68
2023/11/29 11:43:00;;;;;;;31.48;29.30;;;8.90;99.90;;;;;;5012460;28;20045;-68
2023/11/29 11:45:31;;;;;;;36.55;33.90;;;9.00;99.90;;;;;;5011437;28;20026;-68
2023/11/29 11:48:01;;;;;;;28.27;26.00;;;9.20;99.90;;;;;;5011673;28;20060;-69
2023/11/29 11:50:28;;;;;;;30.83;28.73;;;9.40;99.90;;;;;;5010873;28;20042;-69
2023/11/29 11:52:55;;;;;;;36.53;33.97;;;9.40;99.90;;;;;;5011957;28;20391;-68
2023/11/29 11:55:21;;;;;;;38.55;35.65;;;9.50;99.90;;;;;;5012633;28;20418;-69
2023/11/29 11:57:48;;;;;;;38.65;35.95;;;9.60;99.90;;;;;;5012428;28;20045;-69
2023/11/29 12:00:15;;;;;;;37.60;35.08;;;9.60;99.90;;;;;;5008962;28;20057;-68
2023/11/29 12:02:41;;;;;;;39.50;36.85;;;9.60;99.90;;;;;;5010736;28;20030;-69
2023/11/29 12:05:07;;;;;;;36.83;34.38;;;9.60;99.90;;;;;;5010993;28;20036;-68
2023/11/29 12:07:40;;;;;;;34.92;32.65;;;9.50;99.90;;;;;;5011805;28;20038;-69
2023/11/29 12:10:13;;;;;;;35.08;32.63;;;9.60;99.90;;;;;;5012044;28;20494;-69
2023/11/29 12:12:39;;;;;;;35.45;32.85;;;9.70;99.90;;;;;;5012434;28;20038;-68
2023/11/29 12:15:06;;;;;;;36.25;33.92;;;9.80;99.90;;;;;;5010785;28;20387;-69
2023/11/29 12:17:35;;;;;;;40.35;37.67;;;9.90;99.90;;;;;;5011710;28;20034;-68
2023/11/29 12:20:05;;;;;;;46.80;44.00;;;10.00;99.90;;;;;;5011746;28;20402;-69
2023/11/29 12:22:38;;;;;;;44.13;41.35;;;10.10;99.90;;;;;;5011648;28;20042;-69
2023/11/29 12:25:08;;;;;;;62.03;58.25;;;10.10;99.90;;;;;;5012052;28;20030;-69
2023/11/29 12:27:35;;;;;;;68.15;64.20;;;10.20;99.90;;;;;;5026997;28;20045;-68
2023/11/29 12:30:01;;;;;;;54.60;51.38;;;10.10;99.90;;;;;;5011713;28;20502;-69
2023/11/29 12:32:30;;;;;;;70.47;66.40;;;10.30;99.90;;;;;;5031021;28;20053;-71
2023/11/29 12:34:57;;;;;;;62.83;59.17;;;10.40;99.90;;;;;;5030825;28;20032;-71
2023/11/29 12:37:26;;;;;;;75.30;70.82;;;10.50;99.90;;;;;;5030215;28;20036;-72
2023/11/29 12:39:56;;;;;;;53.28;50.15;;;10.50;99.90;;;;;;5031058;28;20048;-72
2023/11/29 12:42:22;;;;;;;75.13;71.05;;;10.60;99.90;;;;;;5031017;28;20037;-72
2023/11/29 12:44:48;;;;;;;71.93;67.82;;;10.60;99.90;;;;;;5030515;28;20041;-71
2023/11/29 12:47:14;;;;;;;76.38;72.10;;;10.60;99.90;;;;;;5031238;28;20036;-71